CheckWX is a tool to help pilots better visualize weather data.  It is not intended as a substitute for an official pre-flight weather briefing.

07:33:54 UTC

VTCC TAF
Chiang Mai International Airport
Chiang Mai, Thailand
TAF VTCC 190500Z 1906/2012 23005KT 9999 BKN035 TEMPO 1906/1912 VRB15G25KT 5000 TSRA FEW020CB BKN030

Jun-19@
06:00 UTC

Jun-19 @ 06:00 UTC

Jun-20@
12:00 UTC

Jun-20 @ 12:00 UTC

TAF VTCC 190500Z 1906/2012 23005KT 9999 BKN035
Wind
  • 230° at 5 KTS
Cloud Levels
  • Broken at 3,500' AGL

Jun-19@
06:00 UTC

Jun-19 @ 06:00 UTC

Jun-19@
12:00 UTC

Jun-19 @ 12:00 UTC

TEMPO 1906/1912 VRB15G25KT 5000 TSRA FEW020CB BKN030

Temporary

Temporary Changes expected for less than half the time period

Wind
  • Variable at 15 KTS
  • {Gusting to 25 KTS
Conditions
Thunderstorm, Rain
Cloud Levels
  • Few at 2,000' AGL
  • Broken at 3,000' AGL